Time;durP1;ratioP1;P1;durP2;ratioP2;P2;SDS_P1;SDS_P2;PMS_P1;PMS_P2;Temp;Humidity;BMP_temperature;BMP_pressure;BME280_temperature;BME280_humidity;BME280_pressure;Samples;Min_cycle;Max_cycle;Signal;HPM_P1;HPM_P2
2023/10/16 00:00:29;;;;;;;13.27;2.50;;;7.90;99.90;;;;;;5087288;28;20071;-79
2023/10/16 00:02:59;;;;;;;9.40;2.50;;;7.90;99.90;;;;;;5086734;28;20040;-79
2023/10/16 00:05:38;;;;;;;8.98;2.88;;;7.90;99.90;;;;;;5100315;28;20044;-79
2023/10/16 00:08:07;;;;;;;12.15;2.38;;;7.90;99.90;;;;;;5093011;28;20044;-79
2023/10/16 00:10:35;;;;;;;6.68;1.92;;;7.80;99.90;;;;;;5094896;28;20041;-78
2023/10/16 00:13:05;;;;;;;4.68;1.73;;;7.90;99.90;;;;;;5093262;28;20060;-79
2023/10/16 00:15:44;;;;;;;9.07;2.50;;;7.80;99.90;;;;;;5114233;28;20054;-79
2023/10/16 00:18:18;;;;;;;6.45;2.30;;;7.80;99.90;;;;;;5083849;28;20094;-79
2023/10/16 00:20:47;;;;;;;8.20;2.53;;;7.90;99.90;;;;;;5102224;28;20060;-80
2023/10/16 00:23:13;;;;;;;9.45;2.17;;;7.80;99.90;;;;;;5100669;28;20047;-80
2023/10/16 00:25:43;;;;;;;10.10;1.90;;;7.80;99.90;;;;;;5093068;28;20036;-78
2023/10/16 00:28:10;;;;;;;7.53;2.08;;;7.90;99.90;;;;;;5103508;28;20032;-80
2023/10/16 00:30:40;;;;;;;9.80;2.23;;;7.80;99.90;;;;;;5096563;28;20150;-82
2023/10/16 00:33:13;;;;;;;10.88;2.20;;;7.80;99.90;;;;;;5085138;28;20302;-83
2023/10/16 00:35:39;;;;;;;8.73;1.90;;;7.80;99.90;;;;;;5120293;28;20488;-82
2023/10/16 00:38:12;;;;;;;7.63;1.83;;;7.80;99.90;;;;;;5098753;28;20101;-81
2023/10/16 00:40:40;;;;;;;3.33;1.60;;;7.80;99.90;;;;;;5105317;28;20078;-83
2023/10/16 00:43:11;;;;;;;9.18;1.83;;;7.80;99.90;;;;;;5105641;28;20044;-81
2023/10/16 00:45:45;;;;;;;10.10;1.75;;;7.80;99.90;;;;;;5112948;28;20047;-80
2023/10/16 00:48:16;;;;;;;6.57;1.67;;;8.40;99.90;;;;;;5101189;28;20044;-81
2023/10/16 00:50:49;;;;;;;7.88;1.77;;;7.80;99.90;;;;;;5121463;27;20036;-82
2023/10/16 00:53:23;;;;;;;7.47;1.88;;;7.80;99.90;;;;;;5102744;28;20128;-79
2023/10/16 00:55:49;;;;;;;8.27;2.10;;;7.80;99.90;;;;;;5092533;28;20048;-82
2023/10/16 00:58:18;;;;;;;6.10;1.65;;;7.80;99.90;;;;;;5101192;28;20048;-81
2023/10/16 01:00:48;;;;;;;9.95;2.25;;;7.80;99.90;;;;;;5102253;28;20057;-83
2023/10/16 01:03:14;;;;;;;6.57;1.90;;;7.90;99.90;;;;;;5112315;28;20051;-82
2023/10/16 01:05:42;;;;;;;7.60;1.60;;;7.80;99.90;;;;;;5098672;28;20033;-83
2023/10/16 01:08:09;;;;;;;6.20;1.65;;;7.80;99.90;;;;;;5105947;28;20028;-83
2023/10/16 01:10:37;;;;;;;5.88;1.80;;;7.90;99.90;;;;;;5094809;28;20131;-82
2023/10/16 01:13:08;;;;;;;12.43;2.20;;;7.90;99.90;;;;;;5085291;28;20067;-82
2023/10/16 01:15:34;;;;;;;7.30;2.33;;;7.90;99.90;;;;;;5093993;28;20046;-81
2023/10/16 01:18:00;;;;;;;6.85;1.70;;;7.90;99.90;;;;;;5103607;28;20076;-82
2023/10/16 01:20:25;;;;;;;6.07;1.60;;;7.80;99.90;;;;;;5094239;28;20035;-81
2023/10/16 01:22:52;;;;;;;8.70;1.90;;;7.80;99.90;;;;;;5112025;28;20051;-83
2023/10/16 01:25:18;;;;;;;5.55;1.98;;;7.80;99.90;;;;;;5105043;28;20036;-78
2023/10/16 01:27:44;;;;;;;9.30;2.10;;;7.90;99.90;;;;;;5086090;28;20067;-81
2023/10/16 01:30:11;;;;;;;10.45;1.80;;;7.90;99.90;;;;;;5104135;28;20036;-80
2023/10/16 01:32:39;;;;;;;7.60;2.08;;;7.80;99.90;;;;;;5098727;28;20097;-79
2023/10/16 01:35:09;;;;;;;5.47;1.70;;;7.90;99.90;;;;;;5103138;28;20084;-79
2023/10/16 01:37:38;;;;;;;6.47;1.80;;;7.90;99.90;;;;;;5104924;28;20035;-78
2023/10/16 01:40:25;;;;;;;6.18;1.70;;;7.90;99.90;;;;;;5083963;28;20127;-80
2023/10/16 01:42:54;;;;;;;10.77;2.25;;;7.90;99.90;;;;;;5123396;27;20044;-81
2023/10/16 01:45:25;;;;;;;6.75;2.50;;;7.80;99.90;;;;;;5115259;28;20162;-80
2023/10/16 01:47:51;;;;;;;8.68;1.80;;;7.80;99.90;;;;;;5105053;28;20048;-79
2023/10/16 01:50:21;;;;;;;6.13;2.00;;;8.20;99.90;;;;;;5104492;28;20052;-81
2023/10/16 01:52:50;;;;;;;6.97;2.20;;;7.70;99.90;;;;;;5097795;28;20050;-82
2023/10/16 01:55:19;;;;;;;6.55;2.10;;;7.70;99.90;;;;;;5087046;28;20040;-80
2023/10/16 01:57:45;;;;;;;6.15;2.35;;;7.70;99.90;;;;;;5107777;28;20096;-80
2023/10/16 02:00:18;;;;;;;6.38;1.83;;;7.70;99.90;;;;;;5121901;28;20036;-80
2023/10/16 02:02:45;;;;;;;6.63;1.73;;;7.60;99.90;;;;;;5115974;28;20052;-80
2023/10/16 02:05:12;;;;;;;4.75;1.35;;;7.60;99.90;;;;;;5117410;28;20055;-82
2023/10/16 02:07:43;;;;;;;7.13;1.70;;;7.60;99.90;;;;;;5099940;28;20079;-81
2023/10/16 02:10:12;;;;;;;6.30;1.65;;;8.60;99.90;;;;;;5116696;28;20028;-79
2023/10/16 02:12:39;;;;;;;5.65;1.70;;;7.60;99.90;;;;;;5117524;28;20050;-79
2023/10/16 02:15:07;;;;;;;6.90;1.73;;;7.60;99.90;;;;;;5139534;27;20050;-78
2023/10/16 02:17:41;;;;;;;7.28;1.70;;;7.60;99.90;;;;;;5136174;28;20044;-85
2023/10/16 02:20:13;;;;;;;7.70;1.80;;;7.60;99.90;;;;;;5118915;28;20092;-83
2023/10/16 02:22:42;;;;;;;5.47;1.73;;;7.60;99.90;;;;;;5134685;28;20534;-79
2023/10/16 02:25:11;;;;;;;8.30;1.88;;;7.60;99.90;;;;;;5096573;28;20032;-80
2023/10/16 02:27:37;;;;;;;5.57;1.77;;;7.60;99.90;;;;;;5105466;28;20052;-82
2023/10/16 02:30:28;;;;;;;5.65;1.80;;;7.60;99.90;;;;;;5118438;28;20035;-80
2023/10/16 02:33:11;;;;;;;4.22;1.83;;;7.60;99.90;;;;;;5109404;28;20138;-80
2023/10/16 02:35:37;;;;;;;6.25;1.60;;;7.60;99.90;;;;;;5103583;28;20077;-83
2023/10/16 02:38:04;;;;;;;7.03;1.77;;;7.80;99.90;;;;;;5104977;28;20085;-81
2023/10/16 02:40:32;;;;;;;7.93;2.03;;;7.60;99.90;;;;;;5094004;28;20048;-82
2023/10/16 02:43:02;;;;;;;;;;;7.60;99.90;;;;;;5088500;28;20044;-80
2023/10/16 02:45:30;;;;;;;;;;;7.50;99.90;;;;;;5102851;28;19939;-81
2023/10/16 02:47:57;;;;;;;7.22;1.85;;;7.50;99.90;;;;;;5106098;28;20400;-81
2023/10/16 02:50:24;;;;;;;7.30;1.90;;;8.10;99.90;;;;;;5114543;28;20103;-80
2023/10/16 02:52:49;;;;;;;5.63;1.80;;;8.30;99.90;;;;;;5114965;28;20048;-81
2023/10/16 02:55:15;;;;;;;7.50;1.80;;;8.40;99.90;;;;;;5105192;28;20094;-81
2023/10/16 02:57:42;;;;;;;5.07;1.80;;;8.20;99.90;;;;;;5108215;28;20059;-83
2023/10/16 03:00:17;;;;;;;11.15;1.77;;;7.50;99.90;;;;;;5105166;28;20044;-81
2023/10/16 03:02:46;;;;;;;9.52;1.92;;;7.50;99.90;;;;;;5106582;28;20044;-81
2023/10/16 03:05:21;;;;;;;4.90;1.65;;;7.60;99.90;;;;;;5085230;28;20055;-81
2023/10/16 03:07:50;;;;;;;7.90;2.05;;;7.60;99.90;;;;;;5099734;28;20051;-83
2023/10/16 03:10:20;;;;;;;5.45;1.65;;;7.60;99.90;;;;;;5069402;28;20048;-83
2023/10/16 03:12:59;;;;;;;7.70;1.98;;;7.60;99.90;;;;;;5086208;28;20048;-84
2023/10/16 03:15:28;;;;;;;5.93;1.90;;;7.70;99.90;;;;;;5095322;28;20043;-80
2023/10/16 03:17:55;;;;;;;12.32;2.53;;;7.70;99.90;;;;;;5090683;28;20098;-82
2023/10/16 03:20:28;;;;;;;7.55;2.00;;;7.70;99.90;;;;;;5070208;28;20040;-82
2023/10/16 03:22:59;;;;;;;9.63;1.98;;;7.90;99.90;;;;;;5100843;28;20048;-81
2023/10/16 03:25:30;;;;;;;7.55;2.10;;;7.70;99.90;;;;;;5080373;28;20125;-81
2023/10/16 03:27:55;;;;;;;4.75;1.83;;;7.70;99.90;;;;;;5105897;28;20048;-81
2023/10/16 03:30:26;;;;;;;8.90;2.00;;;7.70;99.90;;;;;;5106879;28;20051;-84
2023/10/16 03:32:53;;;;;;;12.57;2.35;;;7.80;99.90;;;;;;5100753;28;20075;-84
2023/10/16 03:35:26;;;;;;;8.82;2.95;;;9.10;99.90;;;;;;5110674;27;20070;-81
2023/10/16 03:37:55;;;;;;;10.70;3.50;;;9.20;99.90;;;;;;5078245;28;20051;-78
2023/10/16 03:40:24;;;;;;;14.35;3.10;;;7.80;99.90;;;;;;5108659;28;20032;-78
2023/10/16 03:42:51;;;;;;;12.23;3.45;;;7.80;99.90;;;;;;5097022;28;20047;-81
2023/10/16 03:45:20;;;;;;;9.27;3.60;;;7.80;99.90;;;;;;5103846;28;20079;-80
2023/10/16 03:48:03;;;;;;;7.00;3.70;;;7.80;99.90;;;;;;5111642;28;20036;-80
2023/10/16 03:50:35;;;;;;;12.38;4.30;;;8.20;99.90;;;;;;5097800;28;20092;-78
2023/10/16 03:53:01;;;;;;;11.10;3.92;;;7.80;99.90;;;;;;5083631;28;20515;-81
2023/10/16 03:55:28;;;;;;;11.40;4.72;;;7.80;99.90;;;;;;5090617;28;20412;-80
2023/10/16 03:57:56;;;;;;;12.73;4.32;;;7.80;99.90;;;;;;5090822;28;20074;-82
2023/10/16 04:00:26;;;;;;;8.20;3.47;;;7.90;99.90;;;;;;5087860;28;20107;-82
2023/10/16 04:02:52;;;;;;;10.38;3.42;;;7.80;99.90;;;;;;5111478;28;20166;-81
2023/10/16 04:06:00;;;;;;;7.03;2.67;;;7.80;99.90;;;;;;5093356;28;20093;-82
2023/10/16 04:08:09;;;;;;;9.23;2.50;;;7.90;99.90;;;;;;5089553;28;20135;-82
2023/10/16 04:10:35;;;;;;;10.18;2.40;;;7.90;99.90;;;;;;5093334;28;20059;-83
2023/10/16 04:13:01;;;;;;;6.85;2.03;;;8.30;99.90;;;;;;5096840;28;20485;-82
2023/10/16 04:31:44;;;;;;;5.97;1.88;;;8.00;99.90;;;;;;5091534;28;20041;-81
2023/10/16 04:34:24;;;;;;;6.90;2.35;;;8.00;99.90;;;;;;5097221;28;20391;-82
2023/10/16 04:48:39;;;;;;;6.93;3.97;;;8.10;99.90;;;;;;5106683;28;20455;-80
2023/10/16 04:53:11;;;;;;;11.20;4.13;;;8.10;99.90;;;;;;5101280;28;20048;-82
2023/10/16 04:55:53;;;;;;;11.77;4.40;;;8.10;99.90;;;;;;5099225;28;20032;-81
2023/10/16 05:06:38;;;;;;;9.38;4.22;;;8.10;99.90;;;;;;5100959;28;20083;-83
2023/10/16 06:14:51;;;;;;;10.23;3.65;;;8.10;99.90;;;;;;5091099;28;20075;-80
2023/10/16 06:17:17;;;;;;;9.35;3.42;;;8.10;99.90;;;;;;5086125;28;20033;-81
2023/10/16 06:19:43;;;;;;;9.20;3.63;;;8.30;99.90;;;;;;5103722;28;20486;-82
2023/10/16 06:22:09;;;;;;;11.13;4.03;;;8.30;99.90;;;;;;5120629;28;20059;-81
2023/10/16 06:24:47;;;;;;;11.07;4.05;;;8.20;99.90;;;;;;5120128;28;20040;-81
2023/10/16 06:27:19;;;;;;;11.57;4.32;;;8.50;99.90;;;;;;5104966;28;20062;-82
2023/10/16 06:29:53;;;;;;;10.00;4.72;;;8.20;99.90;;;;;;5106148;28;20135;-80
2023/10/16 06:32:25;;;;;;;13.45;4.80;;;8.20;99.90;;;;;;5108294;28;20052;-81
2023/10/16 06:34:57;;;;;;;9.95;3.85;;;8.20;99.90;;;;;;5108092;28;20127;-81
2023/10/16 06:37:25;;;;;;;10.82;4.38;;;8.30;99.90;;;;;;5105230;28;20481;-81
2023/10/16 06:39:58;;;;;;;10.50;4.13;;;8.30;99.90;;;;;;5107498;28;20107;-80
2023/10/16 06:42:24;;;;;;;12.25;4.68;;;8.30;99.90;;;;;;5112226;28;20081;-81
2023/10/16 06:44:55;;;;;;;11.57;5.10;;;8.70;99.90;;;;;;5111161;28;20048;-81
2023/10/16 06:47:35;;;;;;;10.05;4.15;;;8.30;99.90;;;;;;5112246;28;20044;-84
2023/10/16 06:52:51;;;;;;;13.07;4.57;;;8.30;99.90;;;;;;5108519;28;20051;-82
2023/10/16 06:55:17;;;;;;;11.20;4.18;;;8.30;99.90;;;;;;5103377;28;20102;-82
2023/10/16 06:57:46;;;;;;;13.20;4.90;;;9.00;99.90;;;;;;5097768;28;20033;-82
2023/10/16 07:00:33;;;;;;;12.82;4.45;;;8.30;99.90;;;;;;5090400;28;20037;-81
2023/10/16 07:03:02;;;;;;;14.07;4.32;;;8.30;99.90;;;;;;5094372;28;20044;-81
2023/10/16 07:05:48;;;;;;;10.70;4.40;;;8.30;99.90;;;;;;5093149;28;20045;-80
2023/10/16 07:08:18;;;;;;;11.23;3.92;;;8.40;99.90;;;;;;5091697;28;20115;-81
2023/10/16 07:10:49;;;;;;;13.15;4.05;;;8.40;99.90;;;;;;5102181;28;20040;-81
2023/10/16 07:13:28;;;;;;;10.40;3.83;;;8.40;99.90;;;;;;5098818;28;20095;-82
2023/10/16 07:15:56;;;;;;;;;;;8.50;99.90;;;;;;5096793;28;20055;-80
2023/10/16 07:18:25;;;;;;;8.80;3.63;;;8.50;99.90;;;;;;5100583;28;20023;-82
2023/10/16 07:23:24;;;;;;;10.55;3.50;;;8.60;99.90;;;;;;5102579;28;20537;-82
2023/10/16 07:28:23;;;;;;;15.25;4.35;;;8.60;99.90;;;;;;5101937;28;20044;-82
2023/10/16 07:30:49;;;;;;;13.45;3.53;;;8.70;99.90;;;;;;5082832;28;20083;-83
2023/10/16 07:33:15;;;;;;;10.63;3.70;;;8.70;99.90;;;;;;5083851;28;20476;-82
2023/10/16 07:35:45;;;;;;;12.75;3.53;;;9.00;99.90;;;;;;5095246;28;20028;-81
2023/10/16 07:38:11;;;;;;;9.98;3.97;;;8.80;99.90;;;;;;5083771;28;20119;-81
2023/10/16 07:40:37;;;;;;;12.52;3.38;;;8.80;99.90;;;;;;5095190;28;20040;-81
2023/10/16 07:43:05;;;;;;;11.57;3.92;;;8.90;99.90;;;;;;5092044;28;20393;-82
2023/10/16 07:45:34;;;;;;;15.75;4.10;;;8.90;99.90;;;;;;5098696;28;20047;-81
2023/10/16 07:48:20;;;;;;;13.30;4.25;;;9.00;99.90;;;;;;5115112;28;20086;-80
2023/10/16 07:50:50;;;;;;;11.52;3.97;;;9.00;99.90;;;;;;5088737;28;20037;-81
2023/10/16 07:53:19;;;;;;;11.10;3.58;;;9.10;99.90;;;;;;5092619;28;20079;-80
2023/10/16 07:55:51;;;;;;;17.63;3.75;;;9.10;99.90;;;;;;5091309;28;20119;-82
2023/10/16 07:58:23;;;;;;;11.93;3.70;;;9.20;99.90;;;;;;5099700;28;20040;-83
2023/10/16 08:03:36;;;;;;;9.07;3.10;;;9.20;99.90;;;;;;5084449;28;20114;-81
2023/10/16 08:06:05;;;;;;;9.52;3.40;;;9.30;99.90;;;;;;5120833;28;20039;-81
2023/10/16 08:08:42;;;;;;;10.43;3.47;;;9.30;99.90;;;;;;5111140;28;20048;-81
2023/10/16 08:11:13;;;;;;;12.25;3.50;;;9.30;99.90;;;;;;5119150;28;20075;-80
2023/10/16 08:13:48;;;;;;;8.85;2.95;;;9.40;99.90;;;;;;5081999;28;20087;-80
2023/10/16 08:16:18;;;;;;;6.88;2.80;;;9.50;99.90;;;;;;5085623;28;20044;-81
2023/10/16 08:18:51;;;;;;;10.45;3.20;;;9.50;99.90;;;;;;5099323;28;20065;-81
2023/10/16 08:21:24;;;;;;;11.25;3.63;;;9.50;99.90;;;;;;5100405;28;20052;-81
2023/10/16 08:23:58;;;;;;;9.45;3.50;;;9.60;99.90;;;;;;5105323;28;20048;-80
2023/10/16 08:26:41;;;;;;;14.48;4.05;;;9.70;99.90;;;;;;5101402;28;20048;-81
2023/10/16 08:31:47;;;;;;;10.70;3.75;;;9.70;99.90;;;;;;5098928;28;20071;-80
2023/10/16 08:34:19;;;;;;;12.38;3.97;;;9.80;99.90;;;;;;5080739;28;20083;-80
2023/10/16 08:36:52;;;;;;;8.05;2.92;;;10.20;99.90;;;;;;5092760;28;20151;-80
2023/10/16 08:39:19;;;;;;;16.80;3.17;;;9.80;99.90;;;;;;5097463;28;21138;-80
2023/10/16 08:41:51;;;;;;;12.98;3.35;;;10.10;99.90;;;;;;5094207;28;20047;-81
2023/10/16 08:44:18;;;;;;;14.85;4.10;;;10.10;99.90;;;;;;5081313;28;20327;-80
2023/10/16 08:46:45;;;;;;;13.45;3.00;;;10.40;99.90;;;;;;5099219;28;20079;-80
2023/10/16 08:49:12;;;;;;;10.48;2.70;;;10.20;99.90;;;;;;5107266;28;20044;-80
2023/10/16 08:51:38;;;;;;;12.45;3.03;;;10.40;99.90;;;;;;5093893;28;20048;-80
2023/10/16 08:54:26;;;;;;;11.23;2.88;;;10.60;99.90;;;;;;5099751;28;20093;-79
2023/10/16 08:56:53;;;;;;;11.82;2.63;;;10.80;99.90;;;;;;5097150;28;20058;-80
2023/10/16 08:59:21;;;;;;;9.25;2.13;;;11.00;99.90;;;;;;5096208;28;20508;-79
2023/10/16 09:01:48;;;;;;;10.13;2.95;;;11.10;99.90;;;;;;5095168;28;20482;-80
2023/10/16 09:04:15;;;;;;;7.13;2.45;;;11.00;99.90;;;;;;5091191;28;20122;-80
2023/10/16 09:06:40;;;;;;;9.45;2.38;;;11.60;99.90;;;;;;5075645;28;20079;-80
2023/10/16 09:09:16;;;;;;;7.05;1.92;;;10.80;99.90;;;;;;5079281;28;20044;-80
2023/10/16 09:11:49;;;;;;;9.82;2.53;;;10.70;99.90;;;;;;5096659;28;20039;-80
2023/10/16 09:14:20;;;;;;;8.77;2.58;;;10.70;99.90;;;;;;5094557;28;20043;-80
2023/10/16 09:16:55;;;;;;;6.95;2.15;;;10.60;99.90;;;;;;5096892;28;20078;-79
2023/10/16 09:19:33;;;;;;;6.47;2.15;;;10.60;99.90;;;;;;5079225;28;20044;-80
2023/10/16 09:21:59;;;;;;;5.90;2.13;;;10.50;99.90;;;;;;5102119;28;20048;-80
2023/10/16 09:24:24;;;;;;;9.98;2.90;;;10.50;99.90;;;;;;5096345;28;20094;-79
2023/10/16 09:26:54;;;;;;;7.57;2.17;;;10.60;99.90;;;;;;5103219;28;20123;-78
2023/10/16 09:29:27;;;;;;;11.02;2.00;;;10.80;99.90;;;;;;5104730;28;20047;-80
2023/10/16 09:31:54;;;;;;;6.90;2.22;;;10.90;99.90;;;;;;5097267;28;20100;-81
2023/10/16 09:34:25;;;;;;;10.63;2.33;;;11.00;99.90;;;;;;5097401;28;20036;-79
2023/10/16 09:39:46;;;;;;;7.55;1.92;;;11.10;99.90;;;;;;5096122;28;20040;-79
2023/10/16 09:42:12;;;;;;;6.28;1.80;;;11.20;99.90;;;;;;5097161;28;20063;-80
2023/10/16 09:44:44;;;;;;;9.02;1.90;;;11.30;99.90;;;;;;5085337;28;20044;-80
2023/10/16 09:47:25;;;;;;;8.02;1.83;;;11.50;99.90;;;;;;5078319;28;20402;-79
2023/10/16 09:49:58;;;;;;;9.70;2.38;;;12.20;99.90;;;;;;5088092;28;20050;-80
2023/10/16 09:52:24;;;;;;;11.40;2.10;;;11.70;99.90;;;;;;5098473;28;20173;-80
2023/10/16 09:54:54;;;;;;;8.73;1.92;;;11.70;99.90;;;;;;5099306;28;20044;-79
2023/10/16 09:57:27;;;;;;;4.55;1.50;;;11.70;99.90;;;;;;5099281;28;20040;-79
2023/10/16 09:59:54;;;;;;;10.88;2.25;;;11.60;99.90;;;;;;5095203;28;20094;-80
2023/10/16 10:02:25;;;;;;;5.22;1.80;;;11.70;99.90;;;;;;5088822;28;20147;-79
2023/10/16 10:05:08;;;;;;;6.15;1.80;;;11.90;99.90;;;;;;5099213;28;20062;-78
2023/10/16 10:07:38;;;;;;;5.22;1.85;;;12.20;99.90;;;;;;5089662;28;20055;-81
2023/10/16 10:13:15;;;;;;;8.13;1.98;;;12.30;99.90;;;;;;5107354;28;20044;-79
2023/10/16 10:15:49;;;;;;;8.52;1.60;;;12.60;99.90;;;;;;5101399;28;20044;-81
2023/10/16 10:18:32;;;;;;;5.25;1.92;;;12.90;99.90;;;;;;5102989;28;20126;-79
2023/10/16 10:20:58;;;;;;;5.70;1.70;;;12.90;99.90;;;;;;5111853;28;20063;-80
2023/10/16 10:23:28;;;;;;;9.60;2.17;;;13.00;99.90;;;;;;5120177;28;20043;-81
2023/10/16 10:26:01;;;;;;;8.55;2.40;;;13.20;99.90;;;;;;5096442;28;20055;-80
2023/10/16 10:28:32;;;;;;;5.55;1.63;;;13.40;99.90;;;;;;5107415;28;20051;-79
2023/10/16 10:31:04;;;;;;;4.55;1.38;;;13.70;99.90;;;;;;5115712;28;20040;-77
2023/10/16 10:33:38;;;;;;;7.88;1.70;;;13.90;99.90;;;;;;5106830;28;20036;-78
2023/10/16 10:36:28;;;;;;;7.97;1.83;;;13.90;99.90;;;;;;5125573;28;20040;-78
2023/10/16 10:39:38;;;;;;;4.32;1.30;;;13.80;99.90;;;;;;5091211;28;20048;-78
2023/10/16 10:42:04;;;;;;;7.63;1.42;;;13.30;99.90;;;;;;5110114;28;20055;-79
2023/10/16 10:44:31;;;;;;;5.75;1.38;;;12.80;99.90;;;;;;5107384;28;20088;-78
2023/10/16 10:47:00;;;;;;;3.45;1.15;;;12.90;99.90;;;;;;5112340;28;20048;-78
2023/10/16 10:49:33;;;;;;;4.75;1.30;;;13.20;99.90;;;;;;5107648;28;20036;-79
2023/10/16 10:52:06;;;;;;;4.88;1.33;;;13.50;99.90;;;;;;5107208;28;20055;-78
2023/10/16 10:54:42;;;;;;;6.95;1.83;;;13.70;99.90;;;;;;5095307;28;20051;-79
2023/10/16 10:57:19;;;;;;;3.72;1.27;;;13.50;99.90;;;;;;5100844;28;20070;-80
2023/10/16 10:59:48;;;;;;;5.13;1.40;;;13.30;99.90;;;;;;5092389;28;20413;-79
2023/10/16 11:04:47;;;;;;;9.25;1.80;;;13.00;99.90;;;;;;5092338;28;20044;-79
2023/10/16 11:07:25;;;;;;;4.97;1.50;;;13.20;99.90;;;;;;5075075;28;20055;-79
2023/10/16 11:09:52;;;;;;;9.77;1.60;;;13.00;99.90;;;;;;5099254;28;20107;-79
2023/10/16 11:12:24;;;;;;;11.20;1.70;;;13.00;99.90;;;;;;5081796;28;20082;-79
2023/10/16 11:14:51;;;;;;;8.20;1.83;;;13.00;99.90;;;;;;5098536;28;20067;-79
2023/10/16 11:17:32;;;;;;;8.98;1.60;;;13.10;99.90;;;;;;5099304;28;20384;-79
2023/10/16 11:20:11;;;;;;;8.50;1.83;;;13.10;99.90;;;;;;5096151;28;20047;-79
2023/10/16 11:22:43;;;;;;;8.80;1.95;;;13.20;99.90;;;;;;5095207;28;20060;-79
2023/10/16 11:25:12;;;;;;;6.57;1.60;;;13.40;99.90;;;;;;5062937;28;20054;-78
2023/10/16 11:27:43;;;;;;;5.70;1.13;;;13.50;99.90;;;;;;5075415;28;20043;-79
2023/10/16 11:30:11;;;;;;;7.57;1.73;;;13.60;99.90;;;;;;5080891;28;20036;-79
2023/10/16 11:32:42;;;;;;;6.50;1.80;;;13.50;99.90;;;;;;5088105;28;20119;-80
2023/10/16 11:35:18;;;;;;;6.65;1.48;;;13.30;99.90;;;;;;5103339;28;20396;-80
2023/10/16 11:37:59;;;;;;;10.13;1.70;;;13.10;99.90;;;;;;5100333;28;20040;-80
2023/10/16 11:40:33;;;;;;;6.53;1.95;;;13.40;99.90;;;;;;5095692;28;20044;-80
2023/10/16 11:43:01;;;;;;;9.43;1.50;;;12.90;99.90;;;;;;5100310;28;20149;-79
2023/10/16 11:45:33;;;;;;;10.30;2.17;;;12.90;99.90;;;;;;5092598;28;20043;-78
2023/10/16 11:48:35;;;;;;;10.30;2.15;;;12.90;99.90;;;;;;5097927;28;20536;-80
2023/10/16 11:51:08;;;;;;;6.18;1.60;;;12.90;99.90;;;;;;5111499;28;20044;-80
2023/10/16 11:53:39;;;;;;;8.00;1.65;;;13.40;99.90;;;;;;5101151;28;20048;-79
2023/10/16 11:56:08;;;;;;;5.57;1.83;;;12.60;99.90;;;;;;5099318;28;20055;-79
2023/10/16 11:58:34;;;;;;;11.57;2.88;;;12.60;99.90;;;;;;5091430;28;20170;-80
2023/10/16 12:01:09;;;;;;;9.10;1.67;;;12.50;99.90;;;;;;5080126;28;20399;-79
2023/10/16 12:03:39;;;;;;;8.73;1.75;;;12.50;99.90;;;;;;5100749;28;20040;-80
2023/10/16 12:06:08;;;;;;;4.28;1.85;;;12.40;99.90;;;;;;5081394;28;20053;-79
2023/10/16 12:08:35;;;;;;;6.30;1.70;;;12.50;99.90;;;;;;5077307;28;20040;-78
2023/10/16 12:11:03;;;;;;;4.35;1.63;;;12.50;99.90;;;;;;5093560;28;20106;-79
2023/10/16 12:13:30;;;;;;;9.10;1.67;;;12.40;99.90;;;;;;5083018;28;20040;-78
2023/10/16 12:15:57;;;;;;;9.70;1.75;;;12.30;99.90;;;;;;5083431;28;20051;-80
2023/10/16 12:18:26;;;;;;;10.45;2.28;;;12.20;99.90;;;;;;5085199;28;20100;-79
2023/10/16 12:20:52;;;;;;;;;;;12.20;99.90;;;;;;5103236;28;20582;-80
2023/10/16 12:23:20;;;;;;;11.13;2.20;;;12.10;99.90;;;;;;5101876;28;19920;-79
2023/10/16 12:25:47;;;;;;;11.80;2.08;;;12.10;99.90;;;;;;5090139;28;20040;-80
2023/10/16 12:28:15;;;;;;;8.82;1.90;;;12.00;99.90;;;;;;5106234;28;20039;-79
2023/10/16 12:30:44;;;;;;;8.07;1.80;;;12.10;99.90;;;;;;5113767;28;20067;-80
2023/10/16 12:33:09;;;;;;;11.93;2.38;;;12.10;99.90;;;;;;5093892;28;20033;-78
2023/10/16 12:35:35;;;;;;;8.57;1.95;;;12.20;99.90;;;;;;5080752;28;20059;-81
2023/10/16 12:38:04;;;;;;;12.40;2.63;;;12.50;99.90;;;;;;5070818;28;20059;-79
2023/10/16 12:40:34;;;;;;;8.52;2.33;;;12.30;99.90;;;;;;5086555;28;20048;-80
2023/10/16 12:43:00;;;;;;;6.88;2.08;;;12.40;99.90;;;;;;5093252;28;20052;-80
2023/10/16 12:45:27;;;;;;;6.60;2.28;;;12.50;99.90;;;;;;5097866;28;20098;-79
2023/10/16 12:47:54;;;;;;;14.07;2.55;;;12.40;99.90;;;;;;5098637;28;20044;-81
2023/10/16 12:50:24;;;;;;;7.43;2.10;;;12.50;99.90;;;;;;5100217;28;20044;-80
2023/10/16 12:52:55;;;;;;;7.45;1.83;;;12.50;99.90;;;;;;5099611;28;20091;-80
2023/10/16 12:55:23;;;;;;;7.55;1.80;;;13.50;99.90;;;;;;5094624;28;20052;-79
2023/10/16 12:57:53;;;;;;;6.70;1.92;;;12.60;99.90;;;;;;5082812;28;20048;-79
2023/10/16 13:00:21;;;;;;;8.07;1.63;;;12.50;99.90;;;;;;5092915;28;20036;-79
2023/10/16 13:02:48;;;;;;;;;;;12.50;99.90;;;;;;5069389;28;20124;-80
2023/10/16 13:05:17;;;;;;;8.48;2.17;;;13.10;99.90;;;;;;5097903;28;19926;-81
2023/10/16 13:07:47;;;;;;;9.70;2.15;;;12.50;99.90;;;;;;5100341;28;20124;-79
2023/10/16 13:10:15;;;;;;;5.72;2.00;;;12.50;99.90;;;;;;5100987;28;20116;-80
2023/10/16 13:12:41;;;;;;;;;;;12.50;99.90;;;;;;5102399;28;20071;-80
2023/10/16 13:15:09;;;;;;;5.80;1.65;;;12.50;99.90;;;;;;5099454;28;19920;-80
2023/10/16 13:17:36;;;;;;;7.03;1.75;;;12.50;99.90;;;;;;5105066;28;20052;-79
2023/10/16 13:20:12;;;;;;;6.60;1.90;;;12.50;99.90;;;;;;5109294;28;20055;-79
2023/10/16 13:22:38;;;;;;;5.95;1.73;;;12.50;99.90;;;;;;5086082;28;20439;-81
2023/10/16 13:25:11;;;;;;;4.78;1.67;;;12.50;99.90;;;;;;5100386;28;20045;-80
2023/10/16 13:27:38;;;;;;;10.18;1.70;;;12.40;99.90;;;;;;5070667;28;20040;-80
2023/10/16 13:30:05;;;;;;;10.13;2.13;;;12.40;99.90;;;;;;5104694;28;20130;-79
2023/10/16 13:32:31;;;;;;;8.32;1.75;;;12.40;99.90;;;;;;5101715;28;20081;-81
2023/10/16 13:35:00;;;;;;;6.88;1.50;;;12.50;99.90;;;;;;5096635;28;20066;-79
2023/10/16 13:37:26;;;;;;;11.15;1.85;;;12.50;99.90;;;;;;5112982;28;20096;-79
2023/10/16 13:39:52;;;;;;;7.75;2.30;;;12.50;99.90;;;;;;5111431;28;20059;-79
2023/10/16 13:42:20;;;;;;;8.32;1.92;;;13.30;99.90;;;;;;5099689;28;20044;-79
2023/10/16 13:44:46;;;;;;;5.13;1.98;;;12.50;99.90;;;;;;5104395;28;20044;-79
2023/10/16 13:47:13;;;;;;;5.93;1.90;;;12.50;99.90;;;;;;5112695;28;20044;-80
2023/10/16 13:49:40;;;;;;;7.85;1.73;;;12.50;99.90;;;;;;5111988;28;20086;-82
2023/10/16 13:52:09;;;;;;;5.45;1.80;;;12.50;99.90;;;;;;5128417;28;20044;-79
2023/10/16 13:54:41;;;;;;;9.13;2.00;;;12.40;99.90;;;;;;5122231;28;20112;-81
2023/10/16 13:57:07;;;;;;;5.57;1.60;;;12.40;99.90;;;;;;5110862;28;20044;-79
2023/10/16 13:59:33;;;;;;;6.43;1.77;;;12.40;99.90;;;;;;5106837;28;20078;-79
2023/10/16 14:02:01;;;;;;;6.95;1.67;;;12.30;99.90;;;;;;5101971;28;20056;-80
2023/10/16 14:04:36;;;;;;;5.18;1.50;;;12.30;99.90;;;;;;5097274;28;20048;-79
2023/10/16 14:07:08;;;;;;;7.85;1.55;;;12.30;99.90;;;;;;5123600;28;20090;-80
2023/10/16 14:09:33;;;;;;;9.15;2.13;;;12.30;99.90;;;;;;5108646;28;20044;-80
2023/10/16 14:12:00;;;;;;;8.63;1.70;;;12.30;99.90;;;;;;5119423;28;20110;-80
2023/10/16 14:14:27;;;;;;;6.28;1.40;;;12.30;99.90;;;;;;5113356;28;20040;-80
2023/10/16 14:17:03;;;;;;;6.28;1.83;;;12.30;99.90;;;;;;5110076;28;20100;-81
2023/10/16 14:19:31;;;;;;;6.28;1.52;;;12.20;99.90;;;;;;5104341;28;20040;-79
2023/10/16 14:21:59;;;;;;;5.18;1.35;;;12.30;99.90;;;;;;5103458;28;20051;-80
2023/10/16 14:24:26;;;;;;;7.57;1.95;;;12.30;99.90;;;;;;5095445;28;20054;-81
2023/10/16 14:26:57;;;;;;;9.05;1.90;;;12.20;99.90;;;;;;5124928;28;20057;-81
2023/10/16 14:29:23;;;;;;;7.45;1.80;;;12.20;99.90;;;;;;5106702;28;20036;-82
2023/10/16 14:31:51;;;;;;;8.60;2.10;;;12.20;99.90;;;;;;5103917;28;20152;-80
2023/10/16 14:34:22;;;;;;;7.93;1.80;;;12.10;99.90;;;;;;5121715;28;20048;-79
2023/10/16 14:36:49;;;;;;;11.00;1.70;;;12.20;99.90;;;;;;5110269;28;20055;-80
2023/10/16 14:39:20;;;;;;;13.18;1.95;;;12.40;99.90;;;;;;5079741;28;20045;-80
2023/10/16 14:41:47;;;;;;;7.07;2.15;;;12.10;99.90;;;;;;5090284;28;20059;-81
2023/10/16 14:44:13;;;;;;;3.85;1.30;;;12.30;99.90;;;;;;5093138;28;20059;-82
2023/10/16 14:46:40;;;;;;;7.68;1.42;;;12.00;99.90;;;;;;5104428;28;20044;-80
2023/10/16 14:49:08;;;;;;;6.90;1.55;;;12.10;99.90;;;;;;5092695;28;20452;-81
2023/10/16 14:51:39;;;;;;;5.93;1.63;;;12.10;99.90;;;;;;5113240;28;20041;-79
2023/10/16 14:54:06;;;;;;;7.45;1.77;;;12.00;99.90;;;;;;5094921;28;20049;-81
2023/10/16 14:56:36;;;;;;;4.32;1.75;;;12.00;99.90;;;;;;5076699;28;20044;-81
2023/10/16 14:59:11;;;;;;;10.68;1.88;;;11.90;99.90;;;;;;5101432;28;20048;-81
2023/10/16 15:01:40;;;;;;;9.30;1.77;;;12.00;99.90;;;;;;5107363;28;20048;-83
2023/10/16 15:04:08;;;;;;;5.93;1.77;;;12.00;99.90;;;;;;5103317;28;20414;-81
2023/10/16 15:06:38;;;;;;;10.20;2.22;;;12.00;99.90;;;;;;5085787;28;20059;-80
2023/10/16 15:09:09;;;;;;;6.70;1.80;;;11.90;99.90;;;;;;5070622;28;20108;-82
2023/10/16 15:11:35;;;;;;;7.82;1.55;;;11.90;99.90;;;;;;5095084;28;20071;-81